createdAt,value
2018-12-03T00:03:32.143Z,12.19
2018-12-03T00:05:59.544Z,12.08
2018-12-03T00:08:26.962Z,12.05
2018-12-03T00:10:54.623Z,11.98
2018-12-03T00:13:22.101Z,11.95
2018-12-03T00:15:49.507Z,11.94
2018-12-03T00:18:16.906Z,11.95
2018-12-03T00:20:44.472Z,11.88
2018-12-03T00:23:12.125Z,11.93
2018-12-03T00:25:39.527Z,11.94
2018-12-03T00:28:06.947Z,11.92
2018-12-03T00:30:34.639Z,11.88
2018-12-03T00:33:02.286Z,11.81
2018-12-03T00:35:29.726Z,11.85
2018-12-03T00:37:57.367Z,11.80
2018-12-03T00:40:24.767Z,11.82
2018-12-03T00:42:52.502Z,11.78
2018-12-03T00:45:19.903Z,11.77
2018-12-03T00:47:47.322Z,11.77
2018-12-03T00:50:14.724Z,11.78
2018-12-03T00:52:42.132Z,11.74
2018-12-03T00:55:09.550Z,11.73
2018-12-03T00:57:37.242Z,11.73
2018-12-03T01:00:45.492Z,11.68
2018-12-03T01:03:12.895Z,11.72
2018-12-03T01:05:40.294Z,11.76
2018-12-03T01:08:07.721Z,11.77
2018-12-03T01:10:35.119Z,11.75
2018-12-03T01:13:22.452Z,11.75
2018-12-03T01:15:49.855Z,11.75
2018-12-03T01:18:17.262Z,11.74
2018-12-03T01:20:44.963Z,11.71
2018-12-03T01:23:12.365Z,11.71
2018-12-03T01:25:39.768Z,11.70
2018-12-03T01:28:07.258Z,11.67
2018-12-03T01:30:34.995Z,11.67
2018-12-03T01:33:02.471Z,11.65
2018-12-03T01:35:29.889Z,11.72
2018-12-03T01:37:57.303Z,11.71
2018-12-03T01:40:25.043Z,11.73
2018-12-03T01:42:52.465Z,11.68
2018-12-03T01:45:19.927Z,11.69
2018-12-03T01:47:47.329Z,11.74
2018-12-03T01:50:34.418Z,11.71
2018-12-03T01:53:02.082Z,11.74
2018-12-03T01:55:29.488Z,11.80
2018-12-03T01:57:57.201Z,11.83
2018-12-03T02:01:05.496Z,11.80
2018-12-03T02:03:52.826Z,11.76
2018-12-03T02:06:20.506Z,11.82
2018-12-03T02:08:48.179Z,11.75
2018-12-03T02:11:15.938Z,11.72
2018-12-03T02:13:43.688Z,11.71
2018-12-03T02:16:11.451Z,11.73
2018-12-03T02:18:38.859Z,11.70
2018-12-03T02:21:06.268Z,11.76
2018-12-03T02:23:33.682Z,11.73
2018-12-03T02:26:01.382Z,11.73
2018-12-03T02:28:28.851Z,11.74
2018-12-03T02:30:56.503Z,11.66
2018-12-03T02:33:23.925Z,11.67
2018-12-03T02:35:51.379Z,11.60
2018-12-03T02:38:18.782Z,11.54
2018-12-03T02:40:46.198Z,11.57
2018-12-03T02:43:13.611Z,11.61
2018-12-03T02:45:41.266Z,11.63
2018-12-03T02:48:08.670Z,11.60
2018-12-03T02:50:36.302Z,11.57
2018-12-03T02:53:04.027Z,11.65
2018-12-03T02:55:31.430Z,11.66
2018-12-03T02:57:59.149Z,11.60
2018-12-03T03:00:26.810Z,11.64
2018-12-03T03:02:54.216Z,11.68
2018-12-03T03:05:21.634Z,11.78
2018-12-03T03:07:49.291Z,11.81
2018-12-03T03:10:16.695Z,11.74
2018-12-03T03:12:44.399Z,11.76
2018-12-03T03:15:12.163Z,11.80
2018-12-03T03:17:39.567Z,11.81
2018-12-03T03:20:07.133Z,11.71
2018-12-03T03:22:34.844Z,11.70
2018-12-03T03:25:02.258Z,11.78
2018-12-03T03:27:29.663Z,11.75
2018-12-03T03:29:57.088Z,11.78
2018-12-03T03:32:24.492Z,11.87
2018-12-03T03:34:52.228Z,11.84
2018-12-03T03:37:19.642Z,11.87
2018-12-03T03:39:47.042Z,11.91
2018-12-03T03:42:34.363Z,11.93
2018-12-03T03:45:02.027Z,11.93
2018-12-03T03:47:29.443Z,12.00
2018-12-03T03:49:56.847Z,12.05
2018-12-03T03:52:24.334Z,12.06
2018-12-03T03:54:52.060Z,12.08
2018-12-03T03:57:19.718Z,12.13
2018-12-03T03:59:47.136Z,12.01
2018-12-03T04:02:14.541Z,12.01
2018-12-03T04:04:42.025Z,12.01
2018-12-03T04:07:09.429Z,12.01
2018-12-03T04:09:36.903Z,12.03
2018-12-03T04:12:45.399Z,12.02
2018-12-03T04:15:12.792Z,12.04
2018-12-03T04:17:40.214Z,12.03
2018-12-03T04:20:07.615Z,11.90
2018-12-03T04:22:35.354Z,11.93
2018-12-03T04:25:03.128Z,11.86
2018-12-03T04:27:30.587Z,11.82
2018-12-03T04:29:58.360Z,11.83
2018-12-03T04:32:45.506Z,11.72
2018-12-03T04:35:12.920Z,11.66
2018-12-03T04:37:40.579Z,11.66
2018-12-03T04:40:08.127Z,11.77
2018-12-03T04:42:35.531Z,11.77
2018-12-03T04:45:03.012Z,11.75
2018-12-03T04:47:30.718Z,11.67
2018-12-03T04:49:58.119Z,11.69
2018-12-03T04:52:25.543Z,11.69
2018-12-03T04:56:06.337Z,11.69
2018-12-03T04:58:33.755Z,11.71
2018-12-03T05:01:01.148Z,11.69
2018-12-03T05:03:28.546Z,11.67
2018-12-03T05:05:56.232Z,11.69
2018-12-03T05:08:23.902Z,11.68
2018-12-03T05:10:51.666Z,11.61
2018-12-03T05:13:19.061Z,11.62
2018-12-03T05:15:46.473Z,11.63
2018-12-03T05:18:14.146Z,11.62
2018-12-03T05:20:41.794Z,11.60
2018-12-03T05:23:09.199Z,11.72
2018-12-03T05:25:36.710Z,11.70
2018-12-03T05:31:11.850Z,11.70
2018-12-03T05:33:39.530Z,11.67
2018-12-03T05:36:07.189Z,11.70
2018-12-03T05:38:34.865Z,11.67
2018-12-03T05:41:02.258Z,11.67
2018-12-03T05:43:29.672Z,11.68
2018-12-03T05:45:57.326Z,11.72
2018-12-03T05:48:24.724Z,11.78
2018-12-03T05:50:52.131Z,11.81
2018-12-03T05:53:19.807Z,11.78
2018-12-03T05:55:47.227Z,11.79
2018-12-03T05:58:14.623Z,11.88
2018-12-03T06:00:42.025Z,11.76
2018-12-03T06:03:09.434Z,11.80
2018-12-03T06:05:36.861Z,11.89
2018-12-03T06:08:45.334Z,11.83
2018-12-03T06:11:12.880Z,11.84
2018-12-03T06:13:40.286Z,11.79
2018-12-03T06:16:07.977Z,11.70
2018-12-03T06:18:35.637Z,11.67
2018-12-03T06:21:03.027Z,11.67
2018-12-03T06:23:30.435Z,11.76
2018-12-03T06:25:58.109Z,11.67
2018-12-03T06:28:25.526Z,11.70
2018-12-03T06:31:12.593Z,11.76
2018-12-03T06:36:10.470Z,12.01
2018-12-03T06:38:38.129Z,11.97
2018-12-03T06:41:05.678Z,11.92
2018-12-03T06:43:33.085Z,12.00
2018-12-03T06:46:00.487Z,12.06
2018-12-03T06:48:27.919Z,11.97
2018-12-03T06:50:55.320Z,11.95
2018-12-03T06:53:22.725Z,11.91
2018-12-03T06:55:50.444Z,11.93
2018-12-03T06:58:18.100Z,11.95
2018-12-03T07:00:45.544Z,11.89
2018-12-03T07:05:25.213Z,11.83
2018-12-03T07:07:52.613Z,11.86
2018-12-03T07:10:20.017Z,11.91
2018-12-03T07:12:47.422Z,11.96
2018-12-03T07:15:15.512Z,12.03
2018-12-03T07:17:42.909Z,11.94
2018-12-03T07:20:10.421Z,11.94
2018-12-03T07:22:37.869Z,12.01
2018-12-03T07:25:05.481Z,12.07
2018-12-03T07:27:32.881Z,12.03
2018-12-03T07:30:00.275Z,12.02
2018-12-03T07:32:27.677Z,12.11
2018-12-03T07:34:55.072Z,12.16
2018-12-03T07:37:22.484Z,12.21
2018-12-03T07:39:49.877Z,12.25
2018-12-03T07:42:17.273Z,12.31
2018-12-03T07:44:44.685Z,12.35
2018-12-03T07:47:12.076Z,12.40
2018-12-03T07:49:39.490Z,12.43
2018-12-03T07:52:06.980Z,12.38
2018-12-03T07:54:34.390Z,12.28
2018-12-03T07:57:01.838Z,12.30
2018-12-03T07:59:29.234Z,12.32
2018-12-03T08:01:56.639Z,12.28
2018-12-03T08:07:04.489Z,12.35
2018-12-03T08:09:31.893Z,12.40
2018-12-03T08:11:59.334Z,12.40
2018-12-03T08:14:26.739Z,12.42
2018-12-03T08:16:54.141Z,12.44
2018-12-03T08:19:21.540Z,12.43
2018-12-03T08:21:48.953Z,12.46
2018-12-03T08:24:16.337Z,12.53
2018-12-03T08:26:43.741Z,12.61
2018-12-03T08:29:11.151Z,12.70
2018-12-03T08:31:38.632Z,12.71
2018-12-03T08:34:06.133Z,12.74
2018-12-03T08:36:33.541Z,12.63
2018-12-03T08:39:00.952Z,12.54
2018-12-03T08:41:28.341Z,12.60
2018-12-03T08:43:55.759Z,12.55
2018-12-03T08:46:23.155Z,12.65
2018-12-03T08:48:50.558Z,12.63
2018-12-03T08:51:17.961Z,12.63
2018-12-03T08:53:45.461Z,12.73
2018-12-03T08:56:12.857Z,12.82
2018-12-03T08:58:40.302Z,12.80
2018-12-03T09:01:08.426Z,12.99
2018-12-03T09:03:35.836Z,13.21
2018-12-03T09:06:05.137Z,13.48
2018-12-03T09:08:32.543Z,13.73
2018-12-03T09:10:59.977Z,13.65
2018-12-03T09:13:27.362Z,13.66
2018-12-03T09:15:54.809Z,13.66
2018-12-03T09:18:24.164Z,13.59
2018-12-03T09:20:51.558Z,13.61
2018-12-03T09:23:19.019Z,13.58
2018-12-03T09:25:46.440Z,13.49
2018-12-03T09:28:13.831Z,13.32
2018-12-03T09:30:41.244Z,13.34
2018-12-03T09:33:08.629Z,13.28
2018-12-03T09:35:36.044Z,13.10
2018-12-03T09:38:03.484Z,13.02
2018-12-03T09:40:30.938Z,13.04
2018-12-03T09:42:58.396Z,12.96
2018-12-03T09:45:25.801Z,13.00
2018-12-03T09:47:54.423Z,12.97
2018-12-03T09:50:22.100Z,12.82
2018-12-03T09:52:49.696Z,12.80
2018-12-03T09:55:17.148Z,12.78
2018-12-03T09:57:48.478Z,12.81
2018-12-03T10:00:16.356Z,12.90
2018-12-03T10:02:43.795Z,12.78
2018-12-03T10:05:11.201Z,12.94
2018-12-03T10:07:38.706Z,12.94
2018-12-03T10:10:09.593Z,12.96
2018-12-03T10:12:37.005Z,13.06
2018-12-03T10:17:47.521Z,13.24
2018-12-03T10:20:15.185Z,13.20
2018-12-03T10:22:45.965Z,13.36
2018-12-03T10:25:13.693Z,13.48
2018-12-03T10:30:11.077Z,13.62
2018-12-03T10:33:09.289Z,13.77
2018-12-03T10:35:36.705Z,13.78
2018-12-03T10:38:05.610Z,13.96
2018-12-03T10:40:36.930Z,14.03
2018-12-03T10:43:08.029Z,14.07
2018-12-03T10:45:35.878Z,14.02
2018-12-03T10:48:03.350Z,14.06
2018-12-03T10:50:30.750Z,14.18
2018-12-03T10:52:58.218Z,14.14
2018-12-03T10:55:25.677Z,14.23
2018-12-03T10:57:53.177Z,14.31
2018-12-03T11:03:11.404Z,14.28
2018-12-03T11:05:44.553Z,14.32
2018-12-03T11:08:13.754Z,14.29
2018-12-03T11:10:41.334Z,14.39
2018-12-03T11:13:09.433Z,14.53
2018-12-03T11:15:36.945Z,14.56
2018-12-03T11:18:04.831Z,14.57
2018-12-03T11:20:32.214Z,14.69
2018-12-03T11:22:59.678Z,14.63
2018-12-03T11:25:27.277Z,14.50
2018-12-03T11:27:55.480Z,14.60
2018-12-03T11:30:22.969Z,14.69
2018-12-03T11:32:50.421Z,14.64
2018-12-03T11:35:20.828Z,14.52
2018-12-03T11:37:48.229Z,14.59
2018-12-03T11:40:17.585Z,14.54
2018-12-03T11:42:44.989Z,14.52
2018-12-03T11:45:12.449Z,14.45
2018-12-03T11:47:39.958Z,14.37
2018-12-03T11:50:08.869Z,14.33
2018-12-03T11:52:36.325Z,14.30
2018-12-03T11:55:05.536Z,14.38
2018-12-03T11:57:33.058Z,14.43
2018-12-03T12:00:00.457Z,14.64
2018-12-03T12:02:27.853Z,14.72
2018-12-03T12:04:55.261Z,14.68
2018-12-03T12:07:22.727Z,14.87
2018-12-03T12:09:50.121Z,14.74
2018-12-03T12:12:17.518Z,14.81
2018-12-03T12:14:44.939Z,14.74
2018-12-03T12:17:12.337Z,14.81
2018-12-03T12:19:39.761Z,14.80
2018-12-03T12:22:07.296Z,14.76
2018-12-03T12:24:34.690Z,14.70
2018-12-03T12:27:02.099Z,14.58
2018-12-03T12:29:29.579Z,14.73
2018-12-03T12:31:56.999Z,14.80
2018-12-03T12:34:24.391Z,14.90
2018-12-03T12:36:51.793Z,14.93
2018-12-03T12:39:19.219Z,14.97
2018-12-03T12:41:46.613Z,14.92
2018-12-03T12:44:14.020Z,15.01
2018-12-03T12:46:41.420Z,14.98
2018-12-03T12:49:08.869Z,14.84
2018-12-03T12:51:36.333Z,14.88
2018-12-03T12:54:03.785Z,14.81
2018-12-03T12:56:31.182Z,14.68
2018-12-03T12:58:58.593Z,14.70
2018-12-03T13:01:26.043Z,14.64
2018-12-03T13:03:53.618Z,14.60
2018-12-03T13:06:21.069Z,14.33
2018-12-03T13:08:48.522Z,14.10
2018-12-03T13:11:15.933Z,13.89
2018-12-03T13:13:43.378Z,13.59
2018-12-03T13:16:10.797Z,13.45
2018-12-03T13:18:38.251Z,13.28
2018-12-03T13:21:05.841Z,13.21
2018-12-03T13:23:33.241Z,13.24
2018-12-03T13:26:00.646Z,13.36
2018-12-03T13:28:28.069Z,13.57
2018-12-03T13:30:55.476Z,13.77
2018-12-03T13:33:22.969Z,13.58
2018-12-03T13:35:50.377Z,13.57
2018-12-03T13:38:17.775Z,13.55
2018-12-03T13:40:45.185Z,13.42
2018-12-03T13:43:12.585Z,13.28
2018-12-03T13:45:40.081Z,13.29
2018-12-03T13:48:07.593Z,13.37
2018-12-03T13:50:35.038Z,13.31
2018-12-03T13:53:02.445Z,13.27
2018-12-03T13:55:29.845Z,13.25
2018-12-03T13:57:57.250Z,13.25
2018-12-03T14:00:24.760Z,13.29
2018-12-03T14:02:52.160Z,13.36
2018-12-03T14:05:19.555Z,13.38
2018-12-03T14:07:46.973Z,13.41
2018-12-03T14:10:17.973Z,13.44
2018-12-03T14:12:45.478Z,13.53
2018-12-03T14:15:16.190Z,13.48
2018-12-03T14:17:43.637Z,13.53
2018-12-03T14:20:11.100Z,13.48
2018-12-03T14:22:38.554Z,13.63
2018-12-03T14:25:06.472Z,13.56
2018-12-03T14:27:33.873Z,13.58
2018-12-03T14:30:01.265Z,13.62
2018-12-03T14:32:28.727Z,13.59
2018-12-03T14:34:56.125Z,13.55
2018-12-03T14:37:23.588Z,13.58
2018-12-03T14:39:50.989Z,13.58
2018-12-03T14:42:18.390Z,13.51
2018-12-03T14:44:45.941Z,13.53
2018-12-03T14:47:13.333Z,13.45
2018-12-03T14:49:40.741Z,13.52
2018-12-03T14:52:08.141Z,13.46
2018-12-03T14:54:35.540Z,13.51
2018-12-03T14:57:03.109Z,13.53
2018-12-03T14:59:30.563Z,13.45
2018-12-03T15:01:57.969Z,13.43
2018-12-03T15:04:25.421Z,13.41
2018-12-03T15:06:52.810Z,13.45
2018-12-03T15:09:20.255Z,13.37
2018-12-03T15:11:47.769Z,13.41
2018-12-03T15:14:15.173Z,13.24
2018-12-03T15:16:42.605Z,13.33
2018-12-03T15:19:11.704Z,13.22
2018-12-03T15:21:39.282Z,13.24
2018-12-03T15:24:06.693Z,13.16
2018-12-03T15:26:34.176Z,13.09
2018-12-03T15:29:01.653Z,12.97
2018-12-03T15:31:29.057Z,12.97
2018-12-03T15:33:56.517Z,12.85
2018-12-03T15:36:23.942Z,12.88
2018-12-03T15:38:51.333Z,12.84
2018-12-03T15:41:18.781Z,12.89
2018-12-03T15:43:46.200Z,12.82
2018-12-03T15:46:13.597Z,12.95
2018-12-03T15:48:40.993Z,12.99
2018-12-03T15:51:08.413Z,13.03
2018-12-03T15:53:35.817Z,13.10
2018-12-03T15:56:03.964Z,13.13
2018-12-03T15:58:31.422Z,13.11
2018-12-03T16:00:58.912Z,13.10
2018-12-03T16:03:26.426Z,13.13
2018-12-03T16:05:53.958Z,12.97
2018-12-03T16:08:21.390Z,12.95
2018-12-03T16:10:48.836Z,12.86
2018-12-03T16:13:16.386Z,12.79
2018-12-03T16:15:43.802Z,12.77
2018-12-03T16:18:11.261Z,12.74
2018-12-03T16:20:38.694Z,12.66
2018-12-03T16:23:06.114Z,12.62
2018-12-03T16:25:33.515Z,12.63
2018-12-03T16:28:00.909Z,12.52
2018-12-03T16:30:28.373Z,12.50
2018-12-03T16:32:55.773Z,12.40
2018-12-03T16:35:23.191Z,12.48
2018-12-03T16:37:50.645Z,12.45
2018-12-03T16:40:18.041Z,12.35
2018-12-03T16:42:45.448Z,12.28
2018-12-03T16:45:12.861Z,12.36
2018-12-03T16:47:40.349Z,12.40
2018-12-03T16:50:07.853Z,12.30
2018-12-03T16:52:35.275Z,12.27
2018-12-03T16:55:02.717Z,12.26
2018-12-03T16:57:30.161Z,12.24
2018-12-03T16:59:57.553Z,12.26
2018-12-03T17:02:24.960Z,12.24
2018-12-03T17:04:52.409Z,12.18
2018-12-03T17:07:19.817Z,12.17
2018-12-03T17:09:47.217Z,12.26
2018-12-03T17:12:14.618Z,12.18
2018-12-03T17:14:42.022Z,12.17
2018-12-03T17:17:09.421Z,12.15
2018-12-03T17:19:36.826Z,12.18
2018-12-03T17:22:04.330Z,12.25
2018-12-03T17:24:31.729Z,12.20
2018-12-03T17:26:59.189Z,12.14
2018-12-03T17:29:26.581Z,12.14
2018-12-03T17:31:53.998Z,12.11
2018-12-03T17:34:21.397Z,12.10
2018-12-03T17:36:48.864Z,12.08
2018-12-03T17:39:16.318Z,12.11
2018-12-03T17:41:43.709Z,12.07
2018-12-03T17:44:11.117Z,12.03
2018-12-03T17:46:38.899Z,12.06
2018-12-03T17:49:06.355Z,12.02
2018-12-03T17:51:33.793Z,11.98
2018-12-03T17:54:01.214Z,11.98
2018-12-03T17:56:28.625Z,11.96
2018-12-03T17:58:56.025Z,11.98
2018-12-03T18:01:23.417Z,12.01
2018-12-03T18:03:50.825Z,12.02
2018-12-03T18:06:18.229Z,11.97
2018-12-03T18:08:45.629Z,12.02
2018-12-03T18:11:13.028Z,12.00
2018-12-03T18:13:40.437Z,12.01
2018-12-03T18:16:07.851Z,12.04
2018-12-03T18:18:35.244Z,11.98
2018-12-03T18:21:02.639Z,12.04
2018-12-03T18:23:30.138Z,11.96
2018-12-03T18:25:57.593Z,11.96
2018-12-03T18:28:25.056Z,12.01
2018-12-03T18:30:52.460Z,12.03
2018-12-03T18:33:19.914Z,12.02
2018-12-03T18:35:47.326Z,12.11
2018-12-03T18:38:14.713Z,12.08
2018-12-03T18:40:42.176Z,12.09
2018-12-03T18:43:09.585Z,12.15
2018-12-03T18:45:37.073Z,12.15
2018-12-03T18:48:04.489Z,12.15
2018-12-03T18:50:31.986Z,12.17
2018-12-03T18:52:59.399Z,12.20
2018-12-03T18:55:26.806Z,12.12
2018-12-03T18:57:54.205Z,12.15
2018-12-03T19:00:21.613Z,12.06
2018-12-03T19:02:49.011Z,12.10
2018-12-03T19:05:16.410Z,12.06
2018-12-03T19:07:43.826Z,12.14
2018-12-03T19:10:11.229Z,12.16
2018-12-03T19:12:38.630Z,12.14
2018-12-03T19:15:06.143Z,12.10
2018-12-03T19:17:33.542Z,12.10
2018-12-03T19:20:00.950Z,12.08
2018-12-03T19:22:28.353Z,12.03
2018-12-03T19:24:55.753Z,12.08
2018-12-03T19:27:23.215Z,12.02
2018-12-03T19:29:50.662Z,11.99
2018-12-03T19:32:18.076Z,11.92
2018-12-03T19:34:45.483Z,11.88
2018-12-03T19:37:12.877Z,11.89
2018-12-03T19:39:40.391Z,11.87
2018-12-03T19:42:07.789Z,11.81
2018-12-03T19:44:35.237Z,11.80
2018-12-03T19:50:19.526Z,11.77
2018-12-03T19:52:47.688Z,11.71
2018-12-03T19:55:15.817Z,11.76
2018-12-03T19:57:43.919Z,11.76
2018-12-03T20:00:12.106Z,11.79
2018-12-03T20:02:40.197Z,11.73
2018-12-03T20:05:14.078Z,11.74
2018-12-03T20:07:42.165Z,11.67
2018-12-03T20:10:10.363Z,11.62
2018-12-03T20:12:38.456Z,11.66
2018-12-03T20:15:07.466Z,11.51
2018-12-03T20:17:35.706Z,11.47
2018-12-03T20:20:05.417Z,11.47
2018-12-03T20:22:33.836Z,11.59
2018-12-03T20:25:01.953Z,11.69
2018-12-03T20:27:30.233Z,11.67
2018-12-03T20:29:58.599Z,11.67
2018-12-03T20:32:26.851Z,11.68
2018-12-03T20:34:55.164Z,11.63
2018-12-03T20:37:26.485Z,11.62
2018-12-03T20:39:58.693Z,11.58
2018-12-03T20:42:27.023Z,11.53
2018-12-03T20:44:55.785Z,11.62
2018-12-03T20:47:23.867Z,11.56
2018-12-03T20:49:52.015Z,11.47
2018-12-03T20:52:20.118Z,11.48
2018-12-03T20:54:48.270Z,11.50
2018-12-03T20:57:16.373Z,11.36
2018-12-03T20:59:44.469Z,11.33
2018-12-03T21:02:12.606Z,11.22
2018-12-03T21:04:40.707Z,11.23
2018-12-03T21:07:08.798Z,11.19
2018-12-03T21:09:36.881Z,11.17
2018-12-03T21:12:05.029Z,11.10
2018-12-03T21:14:33.115Z,11.10
2018-12-03T21:17:01.226Z,11.07
2018-12-03T21:19:29.311Z,11.02
2018-12-03T21:21:57.391Z,11.06
2018-12-03T21:24:25.482Z,11.13
2018-12-03T21:26:53.573Z,11.19
2018-12-03T21:29:21.673Z,11.22
2018-12-03T21:31:49.759Z,11.25
2018-12-03T21:34:17.917Z,11.26
2018-12-03T21:36:46.009Z,11.30
2018-12-03T21:39:14.195Z,11.27
2018-12-03T21:41:42.254Z,11.26
2018-12-03T21:44:10.343Z,11.20
2018-12-03T21:46:38.425Z,11.08
2018-12-03T21:49:06.517Z,11.05
2018-12-03T21:51:34.605Z,10.93
2018-12-03T21:54:02.760Z,10.97
2018-12-03T21:56:30.913Z,10.95
2018-12-03T21:58:59.001Z,10.96
2018-12-03T22:01:27.100Z,10.93
2018-12-03T22:03:55.257Z,10.90
2018-12-03T22:06:23.349Z,10.98
2018-12-03T22:08:51.436Z,10.96
2018-12-03T22:11:19.589Z,11.03
2018-12-03T22:13:47.686Z,10.96
2018-12-03T22:16:15.775Z,11.02
2018-12-03T22:18:43.877Z,11.01
2018-12-03T22:21:11.973Z,11.02
2018-12-03T22:23:40.057Z,10.84
2018-12-03T22:26:08.209Z,10.80
2018-12-03T22:28:36.289Z,10.73
2018-12-03T22:31:04.446Z,10.71
2018-12-03T22:33:32.545Z,10.61
2018-12-03T22:36:00.640Z,10.72
2018-12-03T22:38:28.734Z,10.59
2018-12-03T22:40:56.821Z,10.65
2018-12-03T22:43:24.909Z,10.72
2018-12-03T22:45:53.009Z,10.64
2018-12-03T22:48:21.149Z,10.72
2018-12-03T22:50:49.258Z,10.67
2018-12-03T22:53:17.356Z,10.52
2018-12-03T22:55:45.445Z,10.52
2018-12-03T22:58:13.541Z,10.61
2018-12-03T23:03:28.845Z,10.52
2018-12-03T23:05:56.937Z,10.57
2018-12-03T23:08:25.032Z,10.59
2018-12-03T23:10:53.173Z,10.61
2018-12-03T23:13:21.252Z,10.67
2018-12-03T23:15:49.355Z,10.57
2018-12-03T23:18:17.433Z,10.58
2018-12-03T23:20:45.513Z,10.60
2018-12-03T23:23:13.715Z,10.67
2018-12-03T23:25:41.799Z,10.74
2018-12-03T23:28:09.897Z,10.67
2018-12-03T23:30:38.025Z,10.61
2018-12-03T23:33:06.101Z,10.59
2018-12-03T23:35:34.255Z,10.61
2018-12-03T23:38:02.393Z,10.61
2018-12-03T23:40:30.493Z,10.58
2018-12-03T23:42:58.633Z,10.53
2018-12-03T23:45:26.714Z,10.54
2018-12-03T23:47:54.809Z,10.49
2018-12-03T23:50:22.951Z,10.49
2018-12-03T23:52:51.057Z,10.42
2018-12-03T23:55:19.145Z,10.42
2018-12-03T23:57:47.229Z,10.49
